createdAt,value
2022-10-29T00:00:50.487Z,101454.88
2022-10-29T00:03:17.166Z,101454.00
2022-10-29T00:05:43.617Z,101453.09
2022-10-29T00:08:10.075Z,101441.72
2022-10-29T00:10:36.476Z,101439.09
2022-10-29T00:13:03.487Z,101438.19
2022-10-29T00:15:30.136Z,101440.78
2022-10-29T00:17:56.919Z,101439.81
2022-10-29T00:20:23.972Z,101445.03
2022-10-29T00:22:54.296Z,101432.75
2022-10-29T00:25:21.020Z,101440.53
2022-10-29T00:27:47.420Z,101445.72
2022-10-29T00:30:14.033Z,101449.97
2022-10-29T00:32:40.486Z,101457.78
2022-10-29T00:35:07.199Z,101455.94
2022-10-29T00:37:35.055Z,101460.22
2022-10-29T00:40:01.518Z,101464.44
2022-10-29T00:42:28.018Z,101452.09
2022-10-29T00:44:54.494Z,101456.38
2022-10-29T00:47:32.785Z,101450.97
2022-10-29T00:50:05.770Z,101446.47
2022-10-29T00:52:33.547Z,101448.03
2022-10-29T00:55:02.660Z,101456.63
2022-10-29T00:57:37.386Z,101452.16
2022-10-29T01:00:04.390Z,101459.00
2022-10-29T01:02:32.036Z,101459.66
2022-10-29T01:04:59.353Z,101461.25
2022-10-29T01:07:26.293Z,101467.22
2022-10-29T01:09:52.810Z,101461.91
2022-10-29T01:12:33.499Z,101467.94
2022-10-29T01:15:37.134Z,101473.91
2022-10-29T01:18:06.518Z,101476.44
2022-10-29T01:20:54.187Z,101478.09
2022-10-29T01:24:11.558Z,101472.84
2022-10-29T01:27:05.849Z,101476.44
2022-10-29T01:30:00.447Z,101482.59
2022-10-29T01:32:36.488Z,101489.66
2022-10-29T01:35:17.211Z,101491.38
2022-10-29T01:37:57.386Z,101487.97
2022-10-29T01:40:27.568Z,101487.13
2022-10-29T01:42:58.877Z,101487.19
2022-10-29T01:45:56.549Z,101494.19
2022-10-29T01:48:30.543Z,101496.84
2022-10-29T01:51:03.920Z,101491.59
2022-10-29T01:53:31.621Z,101489.88
2022-10-29T01:55:58.057Z,101494.22
2022-10-29T01:58:24.981Z,101496.88
2022-10-29T02:01:16.009Z,101499.50
2022-10-29T02:04:02.076Z,101502.16
2022-10-29T02:06:43.248Z,101493.41
2022-10-29T02:09:39.030Z,101482.97
2022-10-29T02:12:27.730Z,101491.75
2022-10-29T02:14:59.516Z,101492.69
2022-10-29T02:17:26.355Z,101482.28
2022-10-29T02:19:52.808Z,101483.22
2022-10-29T02:22:19.324Z,101496.28
2022-10-29T02:24:45.806Z,101498.06
2022-10-29T02:27:12.400Z,101488.47
2022-10-29T02:29:38.941Z,101487.66
2022-10-29T02:32:05.751Z,101489.44
2022-10-29T02:34:32.231Z,101482.53
2022-10-29T02:36:58.675Z,101480.69
2022-10-29T02:39:25.246Z,101487.66
2022-10-29T02:41:51.706Z,101496.38
2022-10-29T02:44:18.155Z,101490.22
2022-10-29T02:46:44.695Z,101481.31
2022-10-29T02:49:11.194Z,101491.72
2022-10-29T02:51:37.666Z,101485.56
2022-10-29T02:54:04.325Z,101487.25
2022-10-29T02:56:30.793Z,101484.56
2022-10-29T02:58:57.351Z,101489.69
2022-10-29T03:01:24.071Z,101484.41
2022-10-29T03:03:50.628Z,101483.44
2022-10-29T03:06:19.255Z,101489.50
2022-10-29T03:08:46.143Z,101497.25
2022-10-29T03:11:13.282Z,101499.00
2022-10-29T03:13:40.061Z,101490.25
2022-10-29T03:16:06.611Z,101488.50
2022-10-29T03:18:33.088Z,101500.56
2022-10-29T03:20:59.542Z,101504.03
2022-10-29T03:23:26.149Z,101497.00
2022-10-29T03:25:55.890Z,101500.41
2022-10-29T03:28:23.997Z,101504.66
2022-10-29T03:30:50.534Z,101496.75
2022-10-29T03:33:17.022Z,101492.38
2022-10-29T03:35:43.565Z,101497.56
2022-10-29T03:38:10.105Z,101501.91
2022-10-29T03:40:36.574Z,101506.25
2022-10-29T03:43:03.167Z,101498.34
2022-10-29T03:45:29.638Z,101507.03
2022-10-29T03:47:57.612Z,101506.97
2022-10-29T03:50:24.460Z,101495.53
2022-10-29T03:52:51.014Z,101500.66
2022-10-29T03:55:17.557Z,101504.06
2022-10-29T03:57:44.056Z,101504.06
2022-10-29T04:00:10.865Z,101510.09
2022-10-29T04:02:37.403Z,101517.94
2022-10-29T04:05:04.117Z,101517.06
2022-10-29T04:07:30.626Z,101511.81
2022-10-29T04:09:57.129Z,101508.28
2022-10-29T04:12:23.680Z,101508.19
2022-10-29T04:17:16.553Z,101506.31
2022-10-29T04:19:42.998Z,101508.88
2022-10-29T04:28:41.485Z,101518.44
2022-10-29T04:30:29.504Z,101528.91
2022-10-29T04:33:00.058Z,101528.91
2022-10-29T04:35:27.729Z,101522.75
2022-10-29T04:37:57.207Z,101516.59
2022-10-29T04:40:24.533Z,101510.44
2022-10-29T04:42:51.280Z,101509.47
2022-10-29T04:45:18.015Z,101510.25
2022-10-29T04:47:44.774Z,101511.06
2022-10-29T04:50:11.253Z,101513.59
2022-10-29T04:52:37.760Z,101514.34
2022-10-29T04:55:04.629Z,101516.84
2022-10-29T04:57:31.127Z,101507.09
2022-10-29T04:59:57.551Z,101500.84
2022-10-29T05:02:24.037Z,101505.16
2022-10-29T05:04:50.474Z,101497.19
2022-10-29T05:07:16.977Z,101504.97
2022-10-29T05:09:43.448Z,101506.63
2022-10-29T05:12:09.921Z,101505.69
2022-10-29T05:14:36.389Z,101523.03
2022-10-29T05:17:02.886Z,101520.28
2022-10-29T05:19:29.336Z,101528.97
2022-10-29T05:21:55.826Z,101523.75
2022-10-29T05:24:22.315Z,101522.84
2022-10-29T05:26:48.792Z,101521.97
2022-10-29T05:29:15.321Z,101528.03
2022-10-29T05:31:41.775Z,101523.66
2022-10-29T05:34:08.249Z,101517.53
2022-10-29T05:36:34.699Z,101513.13
2022-10-29T05:39:01.156Z,101515.69
2022-10-29T05:41:27.736Z,101521.78
2022-10-29T05:43:54.164Z,101524.44
2022-10-29T05:46:20.599Z,101524.41
2022-10-29T05:48:47.058Z,101521.78
2022-10-29T05:51:13.500Z,101521.78
2022-10-29T05:53:39.950Z,101521.78
2022-10-29T05:56:07.289Z,101521.78
2022-10-29T05:58:33.739Z,101520.94
2022-10-29T06:01:00.176Z,101527.91
2022-10-29T06:03:26.570Z,101534.88
2022-10-29T06:05:52.985Z,101530.56
2022-10-29T06:08:19.400Z,101526.22
2022-10-29T06:10:45.812Z,101525.38
2022-10-29T06:13:13.412Z,101531.50
2022-10-29T06:15:39.878Z,101525.44
2022-10-29T06:18:07.736Z,101528.97
2022-10-29T06:20:34.203Z,101529.84
2022-10-29T06:23:00.626Z,101527.28
2022-10-29T06:25:27.976Z,101527.38
2022-10-29T06:28:01.857Z,101530.91
2022-10-29T06:30:32.232Z,101533.56
2022-10-29T06:32:59.429Z,101535.38
2022-10-29T06:35:26.469Z,101538.94
2022-10-29T06:37:53.147Z,101548.59
2022-10-29T06:40:19.863Z,101552.16
2022-10-29T06:42:46.303Z,101550.50
2022-10-29T06:45:13.027Z,101547.03
2022-10-29T06:47:44.231Z,101541.91
2022-10-29T06:50:12.272Z,101542.78
2022-10-29T06:52:38.996Z,101542.13
2022-10-29T06:55:06.517Z,101544.00
2022-10-29T06:57:32.939Z,101533.66
2022-10-29T07:00:03.715Z,101539.91
2022-10-29T07:02:33.918Z,101534.84
2022-10-29T07:05:00.307Z,101525.44
2022-10-29T07:07:28.360Z,101520.41
2022-10-29T07:09:54.823Z,101523.16
2022-10-29T07:12:21.238Z,101524.22
2022-10-29T07:14:47.623Z,101520.88
2022-10-29T07:17:14.038Z,101517.59
2022-10-29T07:19:40.465Z,101514.25
2022-10-29T07:22:06.881Z,101518.72
2022-10-29T07:24:33.293Z,101527.59
2022-10-29T07:26:59.921Z,101526.91
2022-10-29T07:29:26.364Z,101526.28
2022-10-29T07:31:52.792Z,101529.91
2022-10-29T07:34:19.260Z,101535.28
2022-10-29T07:36:45.677Z,101540.59
2022-10-29T07:39:12.081Z,101534.66
2022-10-29T07:41:38.492Z,101529.66
2022-10-29T07:44:05.005Z,101544.66
2022-10-29T07:46:31.416Z,101536.06
2022-10-29T07:48:57.807Z,101537.06
2022-10-29T07:51:24.222Z,101537.16
2022-10-29T07:53:50.672Z,101541.63
2022-10-29T07:56:17.073Z,101545.28
2022-10-29T07:58:43.578Z,101537.53
2022-10-29T08:01:10.058Z,101542.00
2022-10-29T08:03:36.665Z,101547.38
2022-10-29T08:06:03.111Z,101543.13
2022-10-29T08:08:30.845Z,101543.19
2022-10-29T08:11:01.913Z,101545.94
2022-10-29T08:13:28.636Z,101546.88
2022-10-29T08:15:55.142Z,101547.88
2022-10-29T08:18:21.545Z,101547.06
2022-10-29T08:20:47.968Z,101537.53
2022-10-29T08:23:14.666Z,101539.31
2022-10-29T08:25:42.713Z,101528.00
2022-10-29T08:28:11.876Z,101527.22
2022-10-29T08:30:38.836Z,101530.81
2022-10-29T08:33:05.679Z,101537.91
2022-10-29T08:35:32.782Z,101540.56
2022-10-29T08:37:59.418Z,101536.28
2022-10-29T08:40:39.621Z,101544.25
2022-10-29T08:43:24.808Z,101532.91
2022-10-29T08:45:55.427Z,101534.72
2022-10-29T08:48:33.931Z,101529.53
2022-10-29T08:51:05.820Z,101519.94
2022-10-29T08:53:39.700Z,101515.75
2022-10-29T08:56:07.489Z,101506.19
2022-10-29T08:58:58.325Z,101509.75
2022-10-29T09:01:25.042Z,101514.16
2022-10-29T09:03:51.754Z,101517.78
2022-10-29T09:06:32.686Z,101512.66
2022-10-29T09:09:36.654Z,101509.34
2022-10-29T09:12:28.644Z,101511.22
2022-10-29T09:15:24.078Z,101514.88
2022-10-29T09:18:16.241Z,101516.75
2022-10-29T09:20:51.323Z,101517.75
2022-10-29T09:23:43.657Z,101531.84
2022-10-29T09:26:16.265Z,101544.16
2022-10-29T09:29:17.502Z,101539.94
2022-10-29T09:31:49.875Z,101546.16
2022-10-29T09:34:40.430Z,101547.19
2022-10-29T09:37:21.477Z,101535.97
2022-10-29T09:39:47.999Z,101529.19
2022-10-29T09:42:34.061Z,101532.84
2022-10-29T09:45:02.731Z,101532.13
2022-10-29T09:47:43.515Z,101524.38
2022-10-29T09:50:35.750Z,101537.69
2022-10-29T09:53:02.343Z,101537.88
2022-10-29T09:55:41.930Z,101536.16
2022-10-29T09:58:18.656Z,101538.88
2022-10-29T10:00:45.147Z,101538.97
2022-10-29T10:03:25.358Z,101523.34
2022-10-29T10:05:57.748Z,101512.88
2022-10-29T10:08:24.198Z,101509.41
2022-10-29T10:10:56.075Z,101504.22
2022-10-29T10:13:27.393Z,101499.78
2022-10-29T10:15:56.873Z,101495.44
2022-10-29T10:18:26.375Z,101496.44
2022-10-29T10:21:23.973Z,101487.78
2022-10-29T10:23:54.473Z,101500.16
2022-10-29T10:26:42.931Z,101502.88
2022-10-29T10:29:22.991Z,101481.97
2022-10-29T10:31:51.010Z,101473.22
2022-10-29T10:34:20.196Z,101473.34
2022-10-29T10:36:51.106Z,101474.28
2022-10-29T10:39:38.912Z,101467.31
2022-10-29T10:42:16.736Z,101463.81
2022-10-29T10:44:52.238Z,101454.28
2022-10-29T10:47:24.943Z,101455.19
2022-10-29T10:49:51.362Z,101454.31
2022-10-29T10:52:29.241Z,101450.06
2022-10-29T10:54:58.825Z,101450.09
2022-10-29T10:57:33.103Z,101454.47
2022-10-29T11:00:09.443Z,101449.31
2022-10-29T11:02:50.799Z,101450.31
2022-10-29T11:05:17.156Z,101452.13
2022-10-29T11:08:04.111Z,101450.38
2022-10-29T11:10:44.096Z,101450.41
2022-10-29T11:13:15.111Z,101453.00
2022-10-29T11:16:04.098Z,101453.94
2022-10-29T11:18:40.800Z,101458.28
2022-10-29T11:21:33.215Z,101460.91
2022-10-29T11:24:05.227Z,101461.78
2022-10-29T11:26:34.388Z,101457.31
2022-10-29T11:29:08.948Z,101448.59
2022-10-29T11:31:52.585Z,101435.44
2022-10-29T11:34:34.656Z,101421.41
2022-10-29T11:37:07.401Z,101422.31
2022-10-29T11:39:46.268Z,101417.91
2022-10-29T11:42:13.690Z,101422.28
2022-10-29T11:44:40.977Z,101419.66
2022-10-29T11:47:22.651Z,101416.16
2022-10-29T11:50:07.260Z,101416.13
2022-10-29T11:52:54.068Z,101416.16
2022-10-29T11:55:30.753Z,101400.38
2022-10-29T11:58:11.262Z,101385.47
2022-10-29T12:01:05.764Z,101380.22
2022-10-29T12:03:44.247Z,101377.59
2022-10-29T12:06:33.139Z,101364.50
2022-10-29T12:09:20.713Z,101371.53
2022-10-29T12:11:55.708Z,101376.81
2022-10-29T12:14:29.936Z,101370.69
2022-10-29T12:16:56.311Z,101367.19
2022-10-29T12:19:52.561Z,101365.44
2022-10-29T12:22:44.641Z,101361.97
2022-10-29T12:25:19.455Z,101354.97
2022-10-29T12:28:11.637Z,101359.38
2022-10-29T12:30:47.836Z,101360.25
2022-10-29T12:33:24.805Z,101355.00
2022-10-29T12:38:40.678Z,101348.06
2022-10-29T12:41:17.673Z,101344.56
2022-10-29T12:43:44.476Z,101344.63
2022-10-29T12:46:22.374Z,101343.75
2022-10-29T12:48:58.256Z,101337.66
2022-10-29T12:51:36.845Z,101341.22
2022-10-29T12:54:24.581Z,101344.75
2022-10-29T12:56:51.011Z,101351.75
2022-10-29T12:59:23.428Z,101359.75
2022-10-29T13:05:05.936Z,101348.34
2022-10-29T13:07:33.442Z,101351.88
2022-10-29T13:10:25.118Z,101329.94
2022-10-29T13:13:08.132Z,101341.38
2022-10-29T13:15:43.577Z,101337.88
2022-10-29T13:18:12.913Z,101336.13
2022-10-29T13:20:41.576Z,101331.72
2022-10-29T13:23:23.273Z,101340.53
2022-10-29T13:25:59.804Z,101338.75
2022-10-29T13:28:26.114Z,101319.44
2022-10-29T13:31:13.656Z,101317.66
2022-10-29T13:33:40.001Z,101318.53
2022-10-29T13:36:31.831Z,101327.31
2022-10-29T13:39:07.479Z,101316.72
2022-10-29T13:41:43.369Z,101319.34
2022-10-29T13:44:26.317Z,101320.25
2022-10-29T13:47:04.331Z,101315.84
2022-10-29T13:49:33.801Z,101313.19
2022-10-29T13:52:01.046Z,101312.31
2022-10-29T13:54:31.774Z,101315.84
2022-10-29T13:57:00.346Z,101308.81
2022-10-29T13:59:38.186Z,101295.63
2022-10-29T14:02:22.121Z,101310.56
2022-10-29T14:04:51.025Z,101309.69
2022-10-29T14:07:22.066Z,101314.06
2022-10-29T14:09:52.274Z,101312.31
2022-10-29T14:12:22.084Z,101309.69
2022-10-29T14:15:10.828Z,101314.94
2022-10-29T14:17:37.343Z,101324.63
2022-10-29T14:20:03.968Z,101322.84
2022-10-29T14:22:36.436Z,101322.78
2022-10-29T14:25:32.280Z,101321.00
2022-10-29T14:28:11.008Z,101316.59
2022-10-29T14:30:37.472Z,101320.06
2022-10-29T14:33:17.721Z,101311.28
2022-10-29T14:35:44.459Z,101308.63
2022-10-29T14:38:12.169Z,101308.63
2022-10-29T14:40:38.681Z,101305.13
2022-10-29T14:43:05.443Z,101307.75
2022-10-29T14:45:32.155Z,101308.59
2022-10-29T14:48:03.169Z,101305.94
2022-10-29T14:50:30.460Z,101303.28
2022-10-29T14:53:03.297Z,101301.53
2022-10-29T14:55:41.958Z,101298.88
2022-10-29T14:58:11.268Z,101298.88
2022-10-29T15:00:38.469Z,101299.75
2022-10-29T15:03:06.803Z,101297.97
2022-10-29T15:05:36.067Z,101297.94
2022-10-29T15:08:18.919Z,101290.03
2022-10-29T15:10:50.801Z,101292.63
2022-10-29T15:13:31.236Z,101293.50
2022-10-29T15:16:08.640Z,101290.81
2022-10-29T15:18:35.729Z,101296.06
2022-10-29T15:21:03.951Z,101310.09
2022-10-29T15:23:36.821Z,101312.72
2022-10-29T15:26:14.301Z,101311.78
2022-10-29T15:28:42.315Z,101313.50
2022-10-29T15:31:31.160Z,101309.09
2022-10-29T15:34:10.427Z,101302.84
2022-10-29T15:36:50.919Z,101299.31
2022-10-29T15:39:26.551Z,101280.84
2022-10-29T15:41:55.490Z,101283.44
2022-10-29T15:44:29.417Z,101281.63
2022-10-29T15:47:00.794Z,101276.31
2022-10-29T15:49:31.454Z,101274.53
2022-10-29T15:52:00.289Z,101278.88
2022-10-29T15:54:27.584Z,101286.75
2022-10-29T15:56:53.977Z,101290.19
2022-10-29T15:59:24.406Z,101285.78
2022-10-29T16:01:50.943Z,101280.50
2022-10-29T16:04:17.483Z,101277.84
2022-10-29T16:06:43.965Z,101274.31
2022-10-29T16:09:17.225Z,101281.28
2022-10-29T16:11:43.651Z,101282.13
2022-10-29T16:14:10.144Z,101279.47
2022-10-29T16:16:36.783Z,101279.44
2022-10-29T16:19:03.261Z,101289.03
2022-10-29T16:21:29.682Z,101290.75
2022-10-29T16:23:56.091Z,101283.72
2022-10-29T16:26:24.087Z,101294.22
2022-10-29T16:28:52.602Z,101279.31
2022-10-29T16:31:24.768Z,101286.25
2022-10-29T16:33:53.124Z,101285.34
2022-10-29T16:36:19.590Z,101280.03
2022-10-29T16:38:46.015Z,101288.78
2022-10-29T16:41:17.131Z,101281.66
2022-10-29T16:43:44.185Z,101285.16
2022-10-29T16:46:12.079Z,101271.97
2022-10-29T16:48:38.735Z,101286.84
2022-10-29T16:51:05.657Z,101292.06
2022-10-29T16:53:32.065Z,101289.38
2022-10-29T16:55:58.497Z,101284.06
2022-10-29T16:58:24.946Z,101284.03
2022-10-29T17:00:51.417Z,101284.81
2022-10-29T17:03:18.099Z,101281.25
2022-10-29T17:05:45.846Z,101291.72
2022-10-29T17:08:12.747Z,101290.78
2022-10-29T17:10:39.411Z,101291.63
2022-10-29T17:13:11.162Z,101295.09
2022-10-29T17:15:41.045Z,101294.19
2022-10-29T17:18:07.594Z,101288.03
2022-10-29T17:20:34.012Z,101294.13
2022-10-29T17:23:00.440Z,101291.41
2022-10-29T17:25:26.859Z,101289.63
2022-10-29T17:27:53.316Z,101298.34
2022-10-29T17:30:19.747Z,101304.38
2022-10-29T17:32:46.190Z,101299.97
2022-10-29T17:35:12.620Z,101291.16
2022-10-29T17:37:39.055Z,101288.50
2022-10-29T17:40:08.098Z,101292.81
2022-10-29T17:42:35.119Z,101298.84
2022-10-29T17:45:01.582Z,101304.06
2022-10-29T17:47:28.112Z,101298.75
2022-10-29T17:49:54.629Z,101294.34
2022-10-29T17:52:22.231Z,101296.88
2022-10-29T17:54:48.714Z,101294.19
2022-10-29T17:57:16.133Z,101284.53
2022-10-29T17:59:42.528Z,101294.13
2022-10-29T18:02:10.938Z,101301.88
2022-10-29T18:04:37.539Z,101299.19
2022-10-29T18:07:03.975Z,101298.25
2022-10-29T18:09:30.393Z,101291.13
2022-10-29T18:11:56.884Z,101293.69
2022-10-29T18:14:23.310Z,101291.84
2022-10-29T18:16:49.726Z,101297.03
2022-10-29T18:19:17.217Z,101297.91
2022-10-29T18:21:43.624Z,101296.97
2022-10-29T18:24:10.171Z,101300.41
2022-10-29T18:26:36.774Z,101289.94
2022-10-29T18:29:10.123Z,101294.28
2022-10-29T18:31:37.778Z,101295.06
2022-10-29T18:34:06.203Z,101295.88
2022-10-29T18:36:35.335Z,101284.47
2022-10-29T18:39:01.765Z,101286.19
2022-10-29T18:41:28.217Z,101286.09
2022-10-29T18:43:55.300Z,101288.66
2022-10-29T18:46:22.792Z,101294.72
2022-10-29T18:48:49.996Z,101291.91
2022-10-29T18:51:20.802Z,101296.22
2022-10-29T18:53:47.250Z,101297.06
2022-10-29T18:56:19.093Z,101292.63
2022-10-29T18:58:45.926Z,101285.53
2022-10-29T19:01:20.657Z,101284.59
2022-10-29T19:03:52.337Z,101281.91
2022-10-29T19:06:20.066Z,101289.72
2022-10-29T19:08:47.058Z,101280.06
2022-10-29T19:11:15.727Z,101279.97
2022-10-29T19:13:42.416Z,101279.91
2022-10-29T19:16:11.339Z,101285.09
2022-10-29T19:18:38.739Z,101291.16
2022-10-29T19:21:07.123Z,101286.75
2022-10-29T19:23:34.284Z,101277.03
2022-10-29T19:26:13.321Z,101275.22
2022-10-29T19:28:40.320Z,101269.06
2022-10-29T19:31:08.683Z,101272.53
2022-10-29T19:33:35.705Z,101268.13
2022-10-29T19:36:03.026Z,101270.69
2022-10-29T19:38:29.545Z,101267.16
2022-10-29T19:40:56.961Z,101269.75
2022-10-29T19:43:24.429Z,101271.44
2022-10-29T19:45:51.105Z,101275.75
2022-10-29T19:48:18.932Z,101279.19
2022-10-29T19:50:45.814Z,101273.00
2022-10-29T19:53:12.752Z,101274.72
2022-10-29T19:55:40.269Z,101278.19
2022-10-29T19:58:06.963Z,101279.88
2022-10-29T20:00:33.392Z,101270.16
2022-10-29T20:03:00.269Z,101276.28
2022-10-29T20:05:27.039Z,101274.47
2022-10-29T20:07:53.476Z,101277.91
2022-10-29T20:10:19.876Z,101279.63
2022-10-29T20:12:46.328Z,101283.09
2022-10-29T20:15:12.870Z,101276.94
2022-10-29T20:17:39.292Z,101275.19
2022-10-29T20:20:06.478Z,101265.50
2022-10-29T20:22:32.962Z,101276.81
2022-10-29T20:24:59.367Z,101276.75
2022-10-29T20:27:25.824Z,101274.97
2022-10-29T20:29:52.247Z,101268.84
2022-10-29T20:32:18.854Z,101271.44
2022-10-29T20:34:45.256Z,101272.25
2022-10-29T20:37:11.749Z,101268.72
2022-10-29T20:39:38.166Z,101266.09
2022-10-29T20:42:04.629Z,101271.31
2022-10-29T20:44:31.096Z,101274.81
2022-10-29T20:46:57.557Z,101267.81
2022-10-29T20:49:24.018Z,101276.50
2022-10-29T20:51:50.453Z,101272.13
2022-10-29T20:54:16.879Z,101270.34
2022-10-29T20:56:43.301Z,101266.00
2022-10-29T20:59:09.820Z,101258.09
2022-10-29T21:01:36.400Z,101264.16
2022-10-29T21:04:02.943Z,101265.03
2022-10-29T21:06:29.893Z,101278.09
2022-10-29T21:08:56.413Z,101274.56
2022-10-29T21:11:23.594Z,101276.28
2022-10-29T21:13:50.587Z,101279.75
2022-10-29T21:16:27.278Z,101270.09
2022-10-29T21:18:55.923Z,101280.53
2022-10-29T21:21:22.934Z,101276.13
2022-10-29T21:23:49.493Z,101279.59
2022-10-29T21:26:18.530Z,101279.50
2022-10-29T21:28:45.336Z,101282.09
2022-10-29T21:31:11.805Z,101275.91
2022-10-29T21:33:38.380Z,101274.13
2022-10-29T21:36:05.273Z,101273.22
2022-10-29T21:38:33.234Z,101278.41
2022-10-29T21:41:03.021Z,101275.81
2022-10-29T21:43:29.694Z,101268.81
2022-10-29T21:45:57.120Z,101267.88
2022-10-29T21:48:27.757Z,101271.34
2022-10-29T21:51:07.837Z,101266.09
2022-10-29T21:53:34.584Z,101274.78
2022-10-29T21:56:02.802Z,101276.47
2022-10-29T21:58:29.708Z,101275.56
2022-10-29T22:01:03.506Z,101265.06
2022-10-29T22:03:31.581Z,101266.75
2022-10-29T22:06:11.508Z,101269.38
2022-10-29T22:08:38.285Z,101264.16
2022-10-29T22:11:05.209Z,101265.91
2022-10-29T22:13:32.641Z,101266.78
2022-10-29T22:15:59.493Z,101275.53
2022-10-29T22:18:26.332Z,101276.38
2022-10-29T22:21:13.605Z,101275.47
2022-10-29T22:23:44.488Z,101258.81
2022-10-29T22:26:11.638Z,101253.56
2022-10-29T22:28:38.048Z,101249.16
2022-10-29T22:31:05.224Z,101237.81
2022-10-29T22:33:32.084Z,101238.69
2022-10-29T22:36:19.909Z,101239.53
2022-10-29T22:38:46.572Z,101240.38
2022-10-29T22:41:17.518Z,101241.22
2022-10-29T22:43:44.457Z,101237.72
2022-10-29T22:46:12.677Z,101240.31
2022-10-29T22:48:39.201Z,101240.28
2022-10-29T22:51:06.530Z,101245.53
2022-10-29T22:53:33.565Z,101248.16
2022-10-29T22:56:00.632Z,101236.75
2022-10-29T22:58:27.186Z,101239.34
2022-10-29T23:01:02.719Z,101233.16
2022-10-29T23:03:29.207Z,101232.25
2022-10-29T23:05:57.331Z,101222.69
2022-10-29T23:08:24.224Z,101220.91
2022-10-29T23:10:50.623Z,101220.91
2022-10-29T23:13:17.068Z,101219.19
2022-10-29T23:15:48.003Z,101219.19
2022-10-29T23:18:14.570Z,101220.91
2022-10-29T23:20:41.154Z,101220.91
2022-10-29T23:23:07.720Z,101224.38
2022-10-29T23:25:34.180Z,101222.66
2022-10-29T23:28:00.601Z,101219.13
2022-10-29T23:30:27.037Z,101219.13
2022-10-29T23:32:53.435Z,101213.00
2022-10-29T23:35:19.849Z,101210.38
2022-10-29T23:37:46.253Z,101212.16
2022-10-29T23:40:12.768Z,101206.91
2022-10-29T23:42:39.157Z,101199.91
2022-10-29T23:45:07.707Z,101195.53
2022-10-29T23:47:34.327Z,101194.63
2022-10-29T23:50:00.744Z,101196.34
2022-10-29T23:52:27.157Z,101194.56
2022-10-29T23:54:53.546Z,101184.00
2022-10-29T23:57:19.945Z,101188.31
2022-10-29T23:59:46.350Z,101177.84
